Time,TemperatureF,DewpointF,PressureIn,WindDirection,WindDirectionDegrees,WindSpeedMPH,WindSpeedGustMPH,Humidity,HourlyPrecipIn,Conditions,Clouds,dailyrainin,SoftwareType,DateUTC
2013-02-12 00:11:00,22.0,11.0,-100.00,ESE,115,2.0,5.0,62,0.00,,,0.00,,2013-02-12 08:11:00,
2013-02-12 00:21:00,22.0,11.0,-100.00,ESE,115,2.0,5.0,62,0.00,,,0.00,,2013-02-12 08:21:00,
2013-02-12 00:31:00,22.0,11.0,-100.00,ESE,115,2.0,5.0,62,0.00,,,0.00,,2013-02-12 08:31:00,
2013-02-12 00:41:00,22.0,11.0,-100.00,ESE,115,2.0,5.0,62,0.00,,,0.00,,2013-02-12 08:41:00,
2013-02-12 00:52:00,22.0,11.0,-100.00,ESE,115,2.0,5.0,62,0.00,,,0.00,,2013-02-12 08:52:00,
2013-02-12 01:11:00,22.0,11.0,-100.00,SE,126,3.0,4.0,63,0.00,,,0.00,,2013-02-12 09:11:00,
2013-02-12 01:21:00,22.0,11.0,-100.00,SE,126,3.0,4.0,63,0.00,,,0.00,,2013-02-12 09:21:00,
2013-02-12 01:31:00,22.0,11.0,-100.00,SE,126,3.0,4.0,63,0.00,,,0.00,,2013-02-12 09:31:00,
2013-02-12 01:41:00,22.0,11.0,-100.00,SE,126,3.0,4.0,63,0.00,,,0.00,,2013-02-12 09:41:00,
2013-02-12 01:51:00,22.0,11.0,-100.00,SE,126,3.0,4.0,63,0.00,,,0.00,,2013-02-12 09:51:00,
2013-02-12 02:11:00,25.0,13.0,-100.00,ESE,110,3.0,5.0,61,0.00,,,0.00,,2013-02-12 10:11:00,
2013-02-12 02:21:00,25.0,13.0,-100.00,ESE,110,3.0,5.0,61,0.00,,,0.00,,2013-02-12 10:21:00,
2013-02-12 02:31:00,25.0,13.0,-100.00,ESE,110,3.0,5.0,61,0.00,,,0.00,,2013-02-12 10:31:00,
2013-02-12 02:43:00,25.0,13.0,-100.00,ESE,110,3.0,5.0,61,0.00,,,0.00,,2013-02-12 10:43:00,
2013-02-12 02:51:00,25.0,13.0,-100.00,ESE,110,3.0,5.0,61,0.00,,,0.00,,2013-02-12 10:51:00,
2013-02-12 03:11:00,23.0,10.0,-100.00,SE,129,2.0,4.0,57,0.00,,,0.00,,2013-02-12 11:11:00,
2013-02-12 03:21:00,23.0,10.0,-100.00,SE,129,2.0,4.0,57,0.00,,,0.00,,2013-02-12 11:21:00,
2013-02-12 03:31:00,23.0,10.0,-100.00,SE,129,2.0,4.0,57,0.00,,,0.00,,2013-02-12 11:31:00,
2013-02-12 03:41:00,23.0,10.0,-100.00,SE,129,2.0,4.0,57,0.00,,,0.00,,2013-02-12 11:41:00,
2013-02-12 03:52:00,23.0,10.0,-100.00,SE,129,2.0,4.0,57,0.00,,,0.00,,2013-02-12 11:52:00,
2013-02-12 04:11:00,23.0,13.0,-100.00,ESE,117,3.0,4.0,64,0.00,,,0.00,,2013-02-12 12:11:00,
2013-02-12 04:21:00,23.0,13.0,-100.00,ESE,117,3.0,4.0,64,0.00,,,0.00,,2013-02-12 12:21:00,
2013-02-12 04:32:00,23.0,13.0,-100.00,ESE,117,3.0,4.0,64,0.00,,,0.00,,2013-02-12 12:32:00,
2013-02-12 04:42:00,23.0,13.0,-100.00,ESE,117,3.0,4.0,64,0.00,,,0.00,,2013-02-12 12:42:00,
2013-02-12 04:52:00,23.0,13.0,-100.00,ESE,117,3.0,4.0,64,0.00,,,0.00,,2013-02-12 12:52:00,
2013-02-12 05:11:00,21.0,10.0,-100.00,SE,124,2.0,4.0,63,0.00,,,0.00,,2013-02-12 13:11:00,
2013-02-12 05:22:00,21.0,10.0,-100.00,SE,124,2.0,4.0,63,0.00,,,0.00,,2013-02-12 13:22:00,
2013-02-12 05:31:00,21.0,10.0,-100.00,SE,124,2.0,4.0,63,0.00,,,0.00,,2013-02-12 13:31:00,
2013-02-12 05:42:00,21.0,10.0,-100.00,SE,124,2.0,4.0,63,0.00,,,0.00,,2013-02-12 13:42:00,
2013-02-12 05:51:00,21.0,10.0,-100.00,SE,124,2.0,4.0,63,0.00,,,0.00,,2013-02-12 13:51:00,
2013-02-12 06:11:00,24.0,10.0,-100.00,ESE,114,3.0,5.0,55,0.00,,,0.00,,2013-02-12 14:11:00,
2013-02-12 06:21:00,24.0,10.0,-100.00,ESE,114,3.0,5.0,55,0.00,,,0.00,,2013-02-12 14:21:00,
2013-02-12 06:31:00,24.0,10.0,-100.00,ESE,114,3.0,5.0,55,0.00,,,0.00,,2013-02-12 14:31:00,
2013-02-12 06:41:00,24.0,10.0,-100.00,ESE,114,3.0,5.0,55,0.00,,,0.00,,2013-02-12 14:41:00,
2013-02-12 06:52:00,24.0,10.0,-100.00,ESE,114,3.0,5.0,55,0.00,,,0.00,,2013-02-12 14:52:00,
2013-02-12 07:11:00,25.0,8.0,-100.00,ESE,116,3.0,5.0,48,0.00,,,0.00,,2013-02-12 15:11:00,
2013-02-12 07:21:00,25.0,8.0,-100.00,ESE,116,3.0,5.0,48,0.00,,,0.00,,2013-02-12 15:21:00,
2013-02-12 07:32:00,25.0,8.0,-100.00,ESE,116,3.0,5.0,48,0.00,,,0.00,,2013-02-12 15:32:00,
2013-02-12 07:42:00,25.0,8.0,-100.00,ESE,116,3.0,5.0,48,0.00,,,0.00,,2013-02-12 15:42:00,
2013-02-12 07:52:00,25.0,8.0,-100.00,ESE,116,3.0,5.0,48,0.00,,,0.00,,2013-02-12 15:52:00,
2013-02-12 08:22:00,32.0,8.0,-100.00,ESE,104,5.0,11.0,36,0.00,,,0.00,,2013-02-12 16:22:00,
2013-02-12 08:31:00,32.0,8.0,-100.00,ESE,104,5.0,11.0,36,0.00,,,0.00,,2013-02-12 16:31:00,
2013-02-12 08:41:00,32.0,8.0,-100.00,ESE,104,5.0,11.0,36,0.00,,,0.00,,2013-02-12 16:41:00,
2013-02-12 08:51:00,32.0,8.0,-100.00,ESE,104,5.0,11.0,36,0.00,,,0.00,,2013-02-12 16:51:00,
2013-02-12 09:11:00,39.0,10.0,-100.00,ESE,115,5.0,11.0,30,0.00,,,0.00,,2013-02-12 17:11:00,
2013-02-12 09:21:00,39.0,10.0,-100.00,ESE,115,5.0,11.0,30,0.00,,,0.00,,2013-02-12 17:21:00,
2013-02-12 09:31:00,39.0,10.0,-100.00,ESE,115,5.0,11.0,30,0.00,,,0.00,,2013-02-12 17:31:00,
2013-02-12 09:41:00,39.0,10.0,-100.00,ESE,115,5.0,11.0,30,0.00,,,0.00,,2013-02-12 17:41:00,
2013-02-12 09:52:00,39.0,10.0,-100.00,ESE,115,5.0,11.0,30,0.00,,,0.00,,2013-02-12 17:52:00,
2013-02-12 10:11:00,42.0,10.0,-100.00,SE,130,5.0,13.0,27,0.00,,,0.00,,2013-02-12 18:11:00,
2013-02-12 10:22:00,42.0,10.0,-100.00,SE,130,5.0,13.0,27,0.00,,,0.00,,2013-02-12 18:22:00,
2013-02-12 10:31:00,42.0,10.0,-100.00,SE,130,5.0,13.0,27,0.00,,,0.00,,2013-02-12 18:31:00,
2013-02-12 10:41:00,42.0,10.0,-100.00,SE,130,5.0,13.0,27,0.00,,,0.00,,2013-02-12 18:41:00,
2013-02-12 10:51:00,42.0,10.0,-100.00,SE,130,5.0,13.0,27,0.00,,,0.00,,2013-02-12 18:51:00,
2013-02-12 11:11:00,45.0,9.0,-100.00,WSW,244,5.0,10.0,23,0.00,,,0.00,,2013-02-12 19:11:00,
2013-02-12 11:21:00,45.0,9.0,-100.00,WSW,244,5.0,10.0,23,0.00,,,0.00,,2013-02-12 19:21:00,
2013-02-12 11:31:00,45.0,9.0,-100.00,WSW,244,5.0,10.0,23,0.00,,,0.00,,2013-02-12 19:31:00,
2013-02-12 11:41:00,45.0,9.0,-100.00,WSW,244,5.0,10.0,23,0.00,,,0.00,,2013-02-12 19:41:00,
2013-02-12 11:51:00,45.0,9.0,-100.00,WSW,244,5.0,10.0,23,0.00,,,0.00,,2013-02-12 19:51:00,
2013-02-12 12:11:00,45.0,11.0,-100.00,WNW,302,4.0,10.0,25,0.00,,,0.00,,2013-02-12 20:11:00,
2013-02-12 12:21:00,45.0,11.0,-100.00,WNW,302,4.0,10.0,25,0.00,,,0.00,,2013-02-12 20:21:00,
2013-02-12 12:31:00,45.0,11.0,-100.00,WNW,302,4.0,10.0,25,0.00,,,0.00,,2013-02-12 20:31:00,
2013-02-12 12:41:00,45.0,11.0,-100.00,WNW,302,4.0,10.0,25,0.00,,,0.00,,2013-02-12 20:41:00,
2013-02-12 12:51:00,45.0,11.0,-100.00,WNW,302,4.0,10.0,25,0.00,,,0.00,,2013-02-12 20:51:00,
2013-02-12 13:21:00,46.0,12.0,-100.00,West,280,4.0,10.0,25,0.00,,,0.00,,2013-02-12 21:21:00,
2013-02-12 13:31:00,46.0,12.0,-100.00,West,280,4.0,10.0,25,0.00,,,0.00,,2013-02-12 21:31:00,
2013-02-12 13:41:00,46.0,12.0,-100.00,West,280,4.0,10.0,25,0.00,,,0.00,,2013-02-12 21:41:00,
2013-02-12 13:51:00,46.0,12.0,-100.00,West,280,4.0,10.0,25,0.00,,,0.00,,2013-02-12 21:51:00,
2013-02-12 14:21:00,45.0,15.0,-100.00,WNW,288,5.0,10.0,30,0.00,,,0.00,,2013-02-12 22:21:00,
2013-02-12 14:31:00,45.0,15.0,-100.00,WNW,288,5.0,10.0,30,0.00,,,0.00,,2013-02-12 22:31:00,
2013-02-12 14:41:00,45.0,15.0,-100.00,WNW,288,5.0,10.0,30,0.00,,,0.00,,2013-02-12 22:41:00,
2013-02-12 14:51:00,45.0,15.0,-100.00,WNW,288,5.0,10.0,30,0.00,,,0.00,,2013-02-12 22:51:00,
2013-02-12 15:11:00,45.0,19.0,-100.00,WNW,295,5.0,11.0,35,0.00,,,0.00,,2013-02-12 23:11:00,
2013-02-12 15:21:00,45.0,19.0,-100.00,WNW,295,5.0,11.0,35,0.00,,,0.00,,2013-02-12 23:21:00,
2013-02-12 15:31:00,45.0,19.0,-100.00,WNW,295,5.0,11.0,35,0.00,,,0.00,,2013-02-12 23:31:00,
2013-02-12 15:41:00,45.0,19.0,-100.00,WNW,295,5.0,11.0,35,0.00,,,0.00,,2013-02-12 23:41:00,
2013-02-12 15:52:00,45.0,19.0,-100.00,WNW,295,5.0,11.0,35,0.00,,,0.00,,2013-02-12 23:52:00,
2013-02-12 16:21:00,44.0,20.0,-100.00,WNW,289,5.0,10.0,38,0.00,,,0.00,,2013-02-13 00:21:00,
2013-02-12 16:32:00,44.0,20.0,-100.00,WNW,289,5.0,10.0,38,0.00,,,0.00,,2013-02-13 00:32:00,
2013-02-12 16:42:00,44.0,20.0,-100.00,WNW,289,5.0,10.0,38,0.00,,,0.00,,2013-02-13 00:42:00,
2013-02-12 16:51:00,44.0,20.0,-100.00,WNW,289,5.0,10.0,38,0.00,,,0.00,,2013-02-13 00:51:00,
2013-02-12 17:42:00,41.0,13.0,-100.00,WNW,289,4.0,7.0,32,0.00,,,0.00,,2013-02-13 01:42:00,
2013-02-12 17:51:00,41.0,13.0,-100.00,WNW,289,4.0,7.0,32,0.00,,,0.00,,2013-02-13 01:51:00,
2013-02-12 18:21:00,32.0,14.0,-100.00,SSE,150,1.0,5.0,47,0.00,,,0.00,,2013-02-13 02:21:00,
2013-02-12 18:31:00,32.0,14.0,-100.00,SSE,150,1.0,5.0,47,0.00,,,0.00,,2013-02-13 02:31:00,
2013-02-12 18:41:00,32.0,14.0,-100.00,SSE,150,1.0,5.0,47,0.00,,,0.00,,2013-02-13 02:41:00,
2013-02-12 18:52:00,32.0,14.0,-100.00,SSE,150,1.0,5.0,47,0.00,,,0.00,,2013-02-13 02:52:00,
2013-02-12 19:11:00,31.0,18.0,-100.00,SE,127,1.0,4.0,59,0.00,,,0.00,,2013-02-13 03:11:00,
2013-02-12 19:21:00,31.0,18.0,-100.00,SE,127,1.0,4.0,59,0.00,,,0.00,,2013-02-13 03:21:00,
2013-02-12 19:32:00,31.0,18.0,-100.00,SE,127,1.0,4.0,59,0.00,,,0.00,,2013-02-13 03:32:00,
2013-02-12 19:41:00,31.0,18.0,-100.00,SE,127,1.0,4.0,59,0.00,,,0.00,,2013-02-13 03:41:00,
2013-02-12 19:51:00,31.0,18.0,-100.00,SE,127,1.0,4.0,59,0.00,,,0.00,,2013-02-13 03:51:00,
2013-02-12 20:11:00,28.0,20.0,-100.00,ESE,123,3.0,4.0,70,0.00,,,0.00,,2013-02-13 04:11:00,
2013-02-12 20:21:00,28.0,20.0,-100.00,ESE,123,3.0,4.0,70,0.00,,,0.00,,2013-02-13 04:21:00,
2013-02-12 20:31:00,28.0,20.0,-100.00,ESE,123,3.0,4.0,70,0.00,,,0.00,,2013-02-13 04:31:00,
2013-02-12 20:41:00,28.0,20.0,-100.00,ESE,123,3.0,4.0,70,0.00,,,0.00,,2013-02-13 04:41:00,
2013-02-12 20:51:00,28.0,20.0,-100.00,ESE,123,3.0,4.0,70,0.00,,,0.00,,2013-02-13 04:51:00,
2013-02-12 21:11:00,28.0,19.0,-100.00,ESE,119,3.0,4.0,69,0.00,,,0.00,,2013-02-13 05:11:00,
2013-02-12 21:22:00,28.0,19.0,-100.00,ESE,119,3.0,4.0,69,0.00,,,0.00,,2013-02-13 05:22:00,
2013-02-12 21:31:00,28.0,19.0,-100.00,ESE,119,3.0,4.0,69,0.00,,,0.00,,2013-02-13 05:31:00,
2013-02-12 21:41:00,28.0,19.0,-100.00,ESE,119,3.0,4.0,69,0.00,,,0.00,,2013-02-13 05:41:00,
2013-02-12 21:52:00,28.0,19.0,-100.00,ESE,119,3.0,4.0,69,0.00,,,0.00,,2013-02-13 05:52:00,
2013-02-12 22:11:00,28.0,18.0,-100.00,ESE,116,3.0,4.0,65,0.00,,,0.00,,2013-02-13 06:11:00,
2013-02-12 22:21:00,28.0,18.0,-100.00,ESE,116,3.0,4.0,65,0.00,,,0.00,,2013-02-13 06:21:00,
2013-02-12 22:31:00,28.0,18.0,-100.00,ESE,116,3.0,4.0,65,0.00,,,0.00,,2013-02-13 06:31:00,
2013-02-12 22:41:00,28.0,18.0,-100.00,ESE,116,3.0,4.0,65,0.00,,,0.00,,2013-02-13 06:41:00,
2013-02-12 22:51:00,28.0,18.0,-100.00,ESE,116,3.0,4.0,65,0.00,,,0.00,,2013-02-13 06:51:00,
2013-02-12 23:21:00,27.0,18.0,-100.00,ESE,118,3.0,4.0,68,0.00,,,0.00,,2013-02-13 07:21:00,
2013-02-12 23:31:00,27.0,18.0,-100.00,ESE,118,3.0,4.0,68,0.00,,,0.00,,2013-02-13 07:31:00,
2013-02-12 23:41:00,27.0,18.0,-100.00,ESE,118,3.0,4.0,68,0.00,,,0.00,,2013-02-13 07:41:00,
2013-02-12 23:51:00,27.0,18.0,-100.00,ESE,118,3.0,4.0,68,0.00,,,0.00,,2013-02-13 07:51:00,